createdAt,value
2022-11-25T00:00:14.951Z,11.27
2022-11-25T00:01:20.950Z,12.32
2022-11-25T00:02:29.576Z,14.15
2022-11-25T00:03:42.348Z,13.20
2022-11-25T00:05:03.877Z,12.15
2022-11-25T00:06:33.571Z,13.65
2022-11-25T00:07:46.938Z,15.32
2022-11-25T00:09:02.942Z,12.73
2022-11-25T00:10:11.274Z,13.25
2022-11-25T00:11:19.608Z,14.13
2022-11-25T00:12:31.417Z,11.65
2022-11-25T00:13:45.012Z,14.45
2022-11-25T00:14:53.325Z,13.00
2022-11-25T00:17:37.038Z,12.57
2022-11-25T00:18:51.509Z,14.90
2022-11-25T00:20:10.893Z,13.38
2022-11-25T00:21:28.456Z,15.95
2022-11-25T00:22:34.421Z,13.45
2022-11-25T00:23:40.079Z,15.57
2022-11-25T00:24:43.333Z,11.60
2022-11-25T00:25:47.874Z,13.15
2022-11-25T00:26:57.022Z,15.23
2022-11-25T00:28:06.725Z,13.43
2022-11-25T00:29:15.257Z,13.85
2022-11-25T00:30:24.578Z,15.52
2022-11-25T00:31:37.179Z,13.52
2022-11-25T00:32:45.272Z,13.85
2022-11-25T00:33:50.575Z,13.07
2022-11-25T00:34:55.307Z,13.70
2022-11-25T00:36:07.472Z,12.50
2022-11-25T00:37:13.005Z,13.27
2022-11-25T00:38:21.280Z,16.50
2022-11-25T00:39:28.895Z,12.63
2022-11-25T00:40:34.756Z,12.57
2022-11-25T00:42:00.773Z,13.30
2022-11-25T00:43:24.237Z,11.18
2022-11-25T00:44:43.029Z,14.38
2022-11-25T00:45:46.226Z,13.35
2022-11-25T00:46:56.540Z,13.00
2022-11-25T00:47:59.020Z,12.90
2022-11-25T00:51:27.625Z,14.70
2022-11-25T00:52:37.131Z,14.18
2022-11-25T00:53:58.601Z,12.77
2022-11-25T00:55:03.779Z,13.50
2022-11-25T00:56:14.940Z,13.23
2022-11-25T00:57:23.513Z,16.08
2022-11-25T00:58:28.608Z,11.88
2022-11-25T00:59:33.118Z,15.30
2022-11-25T01:00:40.422Z,14.00
2022-11-25T01:01:47.671Z,13.48
2022-11-25T01:02:53.750Z,13.88
2022-11-25T01:04:02.493Z,15.77
2022-11-25T01:05:13.839Z,15.43
2022-11-25T01:06:25.747Z,17.05
2022-11-25T01:07:31.301Z,14.23
2022-11-25T01:08:37.935Z,14.05
2022-11-25T01:09:40.858Z,16.05
2022-11-25T01:10:51.213Z,17.30
2022-11-25T01:12:00.458Z,13.00
2022-11-25T01:13:12.821Z,15.43
2022-11-25T01:14:15.472Z,17.30
2022-11-25T01:15:18.619Z,16.02
2022-11-25T01:16:33.482Z,14.90
2022-11-25T01:17:38.768Z,15.15
2022-11-25T01:18:46.513Z,17.27
2022-11-25T01:19:50.148Z,16.08
2022-11-25T01:21:19.161Z,16.75
2022-11-25T01:22:27.382Z,17.25
2022-11-25T01:23:29.926Z,18.33
2022-11-25T01:24:37.919Z,22.45
2022-11-25T01:25:47.095Z,18.05
2022-11-25T01:26:56.495Z,17.35
2022-11-25T01:28:04.402Z,18.63
2022-11-25T01:29:21.087Z,19.15
2022-11-25T01:30:29.255Z,17.83
2022-11-25T01:31:39.736Z,17.85
2022-11-25T01:32:43.021Z,21.73
2022-11-25T01:33:48.199Z,19.60
2022-11-25T01:34:56.299Z,18.55
2022-11-25T01:36:11.629Z,20.10
2022-11-25T01:37:17.569Z,17.48
2022-11-25T01:38:30.793Z,19.60
2022-11-25T01:39:44.552Z,19.13
2022-11-25T01:40:54.404Z,19.48
2022-11-25T01:42:02.226Z,18.70
2022-11-25T01:43:16.120Z,18.00
2022-11-25T01:44:35.912Z,18.65
2022-11-25T01:45:39.458Z,18.63
2022-11-25T01:46:58.994Z,21.48
2022-11-25T01:48:23.733Z,20.35
2022-11-25T01:49:46.127Z,20.02
2022-11-25T01:50:55.917Z,22.42
2022-11-25T01:52:13.176Z,19.67
2022-11-25T01:53:23.719Z,19.42
2022-11-25T01:54:48.299Z,19.58
2022-11-25T01:56:10.843Z,20.77
2022-11-25T01:57:26.604Z,20.60
2022-11-25T01:58:37.899Z,21.13
2022-11-25T01:59:51.179Z,22.38
2022-11-25T02:01:11.394Z,22.48
2022-11-25T02:02:23.362Z,24.60
2022-11-25T02:03:37.264Z,20.35
2022-11-25T02:04:50.943Z,22.17
2022-11-25T02:06:27.422Z,21.38
2022-11-25T02:07:43.722Z,21.60
2022-11-25T02:09:02.297Z,19.73
2022-11-25T02:10:17.238Z,19.20
2022-11-25T02:11:30.875Z,21.52
2022-11-25T02:13:02.203Z,19.88
2022-11-25T02:14:10.251Z,20.92
2022-11-25T02:15:20.382Z,21.38
2022-11-25T02:16:24.089Z,21.85
2022-11-25T02:19:06.390Z,19.33
2022-11-25T02:20:28.624Z,21.25
2022-11-25T02:21:56.465Z,19.13
2022-11-25T02:23:26.078Z,20.30
2022-11-25T02:24:48.616Z,22.17
2022-11-25T02:25:55.990Z,18.87
2022-11-25T02:27:05.635Z,17.15
2022-11-25T02:28:44.067Z,17.83
2022-11-25T02:29:48.945Z,21.92
2022-11-25T02:30:54.994Z,21.55
2022-11-25T02:32:01.804Z,19.05
2022-11-25T02:33:10.155Z,19.40
2022-11-25T02:34:18.980Z,22.73
2022-11-25T02:35:32.570Z,17.58
2022-11-25T02:36:42.973Z,21.55
2022-11-25T02:38:02.138Z,20.63
2022-11-25T02:39:09.721Z,21.30
2022-11-25T02:40:24.751Z,22.45
2022-11-25T02:41:52.000Z,22.27
2022-11-25T02:43:04.013Z,21.77
2022-11-25T02:44:11.258Z,22.38
2022-11-25T02:45:26.496Z,23.77
2022-11-25T02:46:31.138Z,23.33
2022-11-25T02:47:39.401Z,23.63
2022-11-25T02:49:07.930Z,23.63
2022-11-25T02:51:33.987Z,23.88
2022-11-25T02:52:36.819Z,26.02
2022-11-25T02:53:48.286Z,24.35
2022-11-25T02:54:55.048Z,23.77
2022-11-25T02:56:01.611Z,26.80
2022-11-25T02:57:15.954Z,25.85
2022-11-25T02:58:22.920Z,25.38
2022-11-25T02:59:31.840Z,27.33
2022-11-25T03:00:41.319Z,23.17
2022-11-25T03:01:49.390Z,25.45
2022-11-25T03:03:08.577Z,27.13
2022-11-25T03:04:14.745Z,23.92
2022-11-25T03:05:18.774Z,23.40
2022-11-25T03:06:33.251Z,22.63
2022-11-25T03:07:41.131Z,27.55
2022-11-25T03:08:46.739Z,27.17
2022-11-25T03:09:50.437Z,26.27
2022-11-25T03:11:08.746Z,24.80
2022-11-25T03:12:20.112Z,27.70
2022-11-25T03:13:32.065Z,27.48
2022-11-25T03:14:43.367Z,33.08
2022-11-25T03:15:47.868Z,25.80
2022-11-25T03:16:51.024Z,28.73
2022-11-25T03:17:54.498Z,31.48
2022-11-25T03:19:00.143Z,29.90
2022-11-25T03:20:16.975Z,27.70
2022-11-25T03:21:23.007Z,28.35
2022-11-25T03:22:29.018Z,28.95
2022-11-25T03:23:33.226Z,31.88
2022-11-25T03:24:43.720Z,28.23
2022-11-25T03:26:06.013Z,32.53
2022-11-25T03:27:12.270Z,33.55
2022-11-25T03:28:17.343Z,32.70
2022-11-25T03:29:24.005Z,31.23
2022-11-25T03:30:32.827Z,30.23
2022-11-25T03:31:37.380Z,32.00
2022-11-25T03:32:44.284Z,30.05
2022-11-25T03:33:46.773Z,32.22
2022-11-25T03:34:49.142Z,29.55
2022-11-25T03:35:53.013Z,30.85
2022-11-25T03:36:57.393Z,28.00
2022-11-25T03:38:06.102Z,31.13
2022-11-25T03:39:12.621Z,30.95
2022-11-25T03:40:16.179Z,33.42
2022-11-25T03:41:20.295Z,30.77
2022-11-25T03:42:23.703Z,31.65
2022-11-25T03:43:29.857Z,31.58
2022-11-25T03:44:33.596Z,29.27
2022-11-25T03:45:36.458Z,29.83
2022-11-25T03:46:41.390Z,32.35
2022-11-25T03:47:44.528Z,31.30
2022-11-25T03:48:53.673Z,31.05
2022-11-25T03:50:00.239Z,30.67
2022-11-25T03:52:43.239Z,31.23
2022-11-25T03:53:52.015Z,29.02
2022-11-25T03:54:56.146Z,31.13
2022-11-25T03:56:05.907Z,33.13
2022-11-25T03:57:11.016Z,31.50
2022-11-25T03:58:17.712Z,34.75
2022-11-25T03:59:20.595Z,34.05
2022-11-25T04:00:26.769Z,32.78
2022-11-25T04:01:45.058Z,30.08
2022-11-25T04:03:00.117Z,28.45
2022-11-25T04:04:07.091Z,29.92
2022-11-25T04:05:19.468Z,31.38
2022-11-25T04:06:25.357Z,30.40
2022-11-25T04:07:32.148Z,33.35
2022-11-25T04:08:48.751Z,33.90
2022-11-25T04:09:54.633Z,27.73
2022-11-25T04:11:03.802Z,29.58
2022-11-25T04:12:33.968Z,33.80
2022-11-25T04:13:43.094Z,36.65
2022-11-25T04:14:45.553Z,32.40
2022-11-25T04:15:50.020Z,31.10
2022-11-25T04:16:55.667Z,33.75
2022-11-25T04:17:59.792Z,30.75
2022-11-25T04:19:03.669Z,30.02
2022-11-25T04:20:13.735Z,31.30
2022-11-25T04:21:23.079Z,31.63
2022-11-25T04:22:27.797Z,29.65
2022-11-25T04:23:36.119Z,27.40
2022-11-25T04:24:45.429Z,29.17
2022-11-25T04:25:52.920Z,32.05
2022-11-25T04:27:05.427Z,30.13
2022-11-25T04:28:11.389Z,29.77
2022-11-25T04:29:19.190Z,34.10
2022-11-25T04:30:25.656Z,32.90
2022-11-25T04:31:31.193Z,31.10
2022-11-25T04:32:40.076Z,29.27
2022-11-25T04:33:49.670Z,30.70
2022-11-25T04:35:00.132Z,33.60
2022-11-25T04:36:03.583Z,33.60
2022-11-25T04:37:08.243Z,31.65
2022-11-25T04:38:16.341Z,33.08
2022-11-25T04:39:23.639Z,33.95
2022-11-25T04:40:32.296Z,31.05
2022-11-25T04:41:48.274Z,30.50
2022-11-25T04:42:57.883Z,30.38
2022-11-25T04:44:07.313Z,30.48
2022-11-25T04:45:23.850Z,32.47
2022-11-25T04:46:37.534Z,31.38
2022-11-25T04:47:45.991Z,32.40
2022-11-25T04:48:50.636Z,31.20
2022-11-25T04:50:03.635Z,29.23
2022-11-25T04:51:07.927Z,31.85
2022-11-25T04:52:12.122Z,30.38
2022-11-25T04:53:15.227Z,29.40
2022-11-25T04:54:21.595Z,30.90
2022-11-25T04:55:32.503Z,36.30
2022-11-25T04:56:48.827Z,30.50
2022-11-25T04:57:53.088Z,28.58
2022-11-25T04:59:17.244Z,27.25
2022-11-25T05:00:24.275Z,27.13
2022-11-25T05:01:31.119Z,32.33
2022-11-25T05:02:56.970Z,31.58
2022-11-25T05:04:02.832Z,29.65
2022-11-25T05:05:05.941Z,34.08
2022-11-25T05:06:13.915Z,28.85
2022-11-25T05:07:22.061Z,39.10
2022-11-25T05:08:40.809Z,34.55
2022-11-25T05:09:56.055Z,35.65
2022-11-25T05:11:23.807Z,33.58
2022-11-25T05:12:51.084Z,29.15
2022-11-25T05:14:06.432Z,33.22
2022-11-25T05:15:17.621Z,32.55
2022-11-25T05:16:24.791Z,29.55
2022-11-25T05:17:31.688Z,32.72
2022-11-25T05:18:37.857Z,33.03
2022-11-25T05:19:59.442Z,35.35
2022-11-25T05:21:21.845Z,32.92
2022-11-25T05:22:35.859Z,31.67
2022-11-25T05:23:55.973Z,31.80
2022-11-25T05:25:07.190Z,30.92
2022-11-25T05:26:18.317Z,31.95
2022-11-25T05:27:26.953Z,37.42
2022-11-25T05:28:38.280Z,32.30
2022-11-25T05:29:49.158Z,34.03
2022-11-25T05:31:05.926Z,31.30
2022-11-25T05:32:18.523Z,30.02
2022-11-25T05:33:28.974Z,29.60
2022-11-25T05:35:04.678Z,32.22
2022-11-25T05:36:15.124Z,30.63
2022-11-25T05:37:30.489Z,30.65
2022-11-25T05:38:39.904Z,33.08
2022-11-25T05:39:52.241Z,32.17
2022-11-25T05:41:25.033Z,31.10
2022-11-25T05:42:31.379Z,33.30
2022-11-25T05:43:45.903Z,31.25
2022-11-25T05:44:56.757Z,28.75
2022-11-25T05:46:08.729Z,39.85
2022-11-25T05:47:36.916Z,31.95
2022-11-25T05:48:46.380Z,29.73
2022-11-25T05:49:55.720Z,31.70
2022-11-25T05:51:02.316Z,32.20
2022-11-25T05:52:08.214Z,30.70
2022-11-25T05:55:38.124Z,28.63
2022-11-25T06:56:45.805Z,32.78
2022-11-25T07:04:49.892Z,30.80
2022-11-25T07:06:05.875Z,31.55
2022-11-25T07:07:13.440Z,33.08
2022-11-25T07:08:46.313Z,35.00
2022-11-25T07:09:58.913Z,34.72
2022-11-25T07:11:38.219Z,33.35
2022-11-25T07:13:24.523Z,34.22
2022-11-25T07:14:42.017Z,35.08
2022-11-25T07:15:53.095Z,29.40
2022-11-25T07:17:10.353Z,31.92
2022-11-25T07:18:18.213Z,31.20
2022-11-25T07:21:43.915Z,32.00
2022-11-25T07:23:59.371Z,29.80
2022-11-25T07:25:39.402Z,32.60
2022-11-25T07:31:55.296Z,30.52
2022-11-25T07:33:04.223Z,29.20
2022-11-25T07:34:22.002Z,28.00
2022-11-25T07:35:31.714Z,31.48
2022-11-25T07:36:36.268Z,29.75
2022-11-25T07:37:39.683Z,28.65
2022-11-25T07:38:46.739Z,30.65
2022-11-25T07:39:57.037Z,26.45
2022-11-25T07:41:17.765Z,31.88
2022-11-25T07:42:23.796Z,29.90
2022-11-25T07:43:31.470Z,29.35
2022-11-25T07:44:39.525Z,29.60
2022-11-25T07:46:19.822Z,27.55
2022-11-25T07:47:26.137Z,29.23
2022-11-25T07:48:28.899Z,29.33
2022-11-25T07:49:36.673Z,30.67
2022-11-25T07:50:43.011Z,32.75
2022-11-25T07:51:58.013Z,28.52
2022-11-25T07:53:04.016Z,31.17
2022-11-25T07:54:11.942Z,27.98
2022-11-25T07:55:23.261Z,27.08
2022-11-25T07:56:32.461Z,26.75
2022-11-25T07:57:39.108Z,28.45
2022-11-25T07:58:46.049Z,28.13
2022-11-25T07:59:50.856Z,32.67
2022-11-25T08:00:54.263Z,25.48
2022-11-25T08:01:59.220Z,26.05
2022-11-25T08:03:05.021Z,26.70
2022-11-25T08:04:09.638Z,30.85
2022-11-25T08:05:19.453Z,28.70
2022-11-25T08:06:27.998Z,28.35
2022-11-25T08:07:37.819Z,27.02
2022-11-25T08:08:43.150Z,28.48
2022-11-25T08:09:50.035Z,29.90
2022-11-25T08:10:53.303Z,39.65
2022-11-25T08:11:58.400Z,28.27
2022-11-25T08:13:02.946Z,31.65
2022-11-25T08:14:11.717Z,25.85
2022-11-25T08:15:55.333Z,29.45
2022-11-25T08:17:09.124Z,33.42
2022-11-25T08:18:12.013Z,33.90
2022-11-25T08:19:21.427Z,28.75
2022-11-25T08:21:03.137Z,32.60
2022-11-25T08:22:13.502Z,30.75
2022-11-25T08:27:52.397Z,26.85
2022-11-25T08:29:03.220Z,31.23
2022-11-25T08:30:16.368Z,27.90
2022-11-25T08:31:35.393Z,31.23
2022-11-25T08:32:40.220Z,26.88
2022-11-25T08:33:47.259Z,34.33
2022-11-25T08:34:52.137Z,28.63
2022-11-25T08:35:58.044Z,29.15
2022-11-25T08:38:44.288Z,35.10
2022-11-25T08:40:05.564Z,28.52
2022-11-25T08:41:31.270Z,29.20
2022-11-25T08:43:03.742Z,31.83
2022-11-25T08:44:14.113Z,29.90
2022-11-25T08:45:28.079Z,28.75
2022-11-25T08:46:46.778Z,36.80
2022-11-25T08:48:01.072Z,31.60
2022-11-25T08:49:40.379Z,33.45
2022-11-25T08:50:55.518Z,31.30
2022-11-25T08:52:11.479Z,33.90
2022-11-25T08:53:22.014Z,35.15
2022-11-25T08:54:34.925Z,35.10
2022-11-25T08:55:40.648Z,36.15
2022-11-25T08:56:44.337Z,32.63
2022-11-25T08:58:06.739Z,33.97
2022-11-25T08:59:14.864Z,30.88
2022-11-25T09:00:25.163Z,33.75
2022-11-25T09:01:45.580Z,33.55
2022-11-25T09:02:49.025Z,31.85
2022-11-25T09:05:48.983Z,36.35
2022-11-25T09:06:56.035Z,37.75
2022-11-25T09:08:09.294Z,33.65
2022-11-25T09:09:19.920Z,31.20
2022-11-25T09:10:26.332Z,33.88
2022-11-25T09:11:35.349Z,33.88
2022-11-25T09:14:14.476Z,34.40
2022-11-25T09:15:18.291Z,29.90
2022-11-25T09:16:22.060Z,31.73
2022-11-25T09:17:29.599Z,31.63
2022-11-25T09:18:37.534Z,36.35
2022-11-25T09:19:41.717Z,33.90
2022-11-25T09:20:44.237Z,34.10
2022-11-25T09:21:53.902Z,39.95
2022-11-25T09:23:01.560Z,36.85
2022-11-25T09:24:12.887Z,34.58
2022-11-25T09:25:21.048Z,32.33
2022-11-25T09:26:39.973Z,33.58
2022-11-25T09:27:42.793Z,34.97
2022-11-25T09:28:58.703Z,36.33
2022-11-25T09:30:14.127Z,34.17
2022-11-25T09:33:37.116Z,31.40
2022-11-25T09:34:47.255Z,34.97
2022-11-25T09:37:17.034Z,33.72
2022-11-25T09:38:28.402Z,34.70
2022-11-25T09:39:54.134Z,36.30
2022-11-25T09:41:55.256Z,33.33
2022-11-25T09:43:44.285Z,29.60
2022-11-25T09:45:33.653Z,33.58
2022-11-25T10:12:42.894Z,25.88
2022-11-25T10:14:09.336Z,23.33
2022-11-25T10:15:27.892Z,20.63
2022-11-25T10:18:14.387Z,20.58
2022-11-25T10:19:42.252Z,20.40
2022-11-25T10:20:57.484Z,17.75
2022-11-25T10:22:33.165Z,18.90
2022-11-25T10:23:37.735Z,19.80
2022-11-25T10:28:44.124Z,21.15
2022-11-25T10:30:02.272Z,23.58
2022-11-25T10:31:09.705Z,27.63
2022-11-25T10:32:37.266Z,30.15
2022-11-25T10:33:46.545Z,30.15
2022-11-25T10:35:04.465Z,28.60
2022-11-25T10:36:20.113Z,28.00
2022-11-25T10:37:38.155Z,31.17
2022-11-25T10:39:19.939Z,25.03
2022-11-25T10:40:24.227Z,24.73
2022-11-25T10:41:38.878Z,26.55
2022-11-25T10:42:41.686Z,26.20
2022-11-25T10:43:47.126Z,24.13
2022-11-25T10:44:49.630Z,23.38
2022-11-25T10:46:24.497Z,25.75
2022-11-25T10:47:45.246Z,20.25
2022-11-25T10:48:53.463Z,21.02
2022-11-25T10:49:55.982Z,20.07
2022-11-25T10:50:58.741Z,19.67
2022-11-25T10:52:01.033Z,19.40
2022-11-25T10:53:16.351Z,18.90
2022-11-25T10:54:27.586Z,16.20
2022-11-25T10:55:34.783Z,22.95
2022-11-25T10:57:00.250Z,17.98
2022-11-25T10:58:28.063Z,20.02
2022-11-25T10:59:44.779Z,20.85
2022-11-25T11:01:04.752Z,20.33
2022-11-25T11:11:21.982Z,27.30
2022-11-25T11:12:32.042Z,26.63
2022-11-25T11:13:38.282Z,22.25
2022-11-25T11:14:44.269Z,22.73
2022-11-25T11:15:57.702Z,24.02
2022-11-25T11:17:05.776Z,21.63
2022-11-25T11:18:28.619Z,23.83
2022-11-25T11:19:39.882Z,21.63
2022-11-25T11:20:48.683Z,21.83
2022-11-25T11:21:57.726Z,25.60
2022-11-25T11:23:09.037Z,23.00
2022-11-25T11:26:32.757Z,21.85
2022-11-25T11:27:46.741Z,20.98
2022-11-25T11:29:03.487Z,22.05
2022-11-25T11:30:15.587Z,17.80
2022-11-25T11:31:34.023Z,18.67
2022-11-25T11:32:48.613Z,20.58
2022-11-25T11:34:31.926Z,23.80
2022-11-25T11:35:44.785Z,23.08
2022-11-25T11:37:15.092Z,24.25
2022-11-25T11:39:48.887Z,24.35
2022-11-25T11:41:23.400Z,20.35
2022-11-25T11:42:44.136Z,25.45
2022-11-25T11:45:49.657Z,21.33
2022-11-25T11:47:21.812Z,16.55
2022-11-25T11:48:31.896Z,19.55
2022-11-25T11:49:41.738Z,19.75
2022-11-25T11:50:52.978Z,20.40
2022-11-25T11:52:20.164Z,20.15
2022-11-25T11:53:58.252Z,20.95
2022-11-25T11:55:27.904Z,22.27
2022-11-25T11:56:57.853Z,25.77
2022-11-25T11:58:13.403Z,22.48
2022-11-25T11:59:55.754Z,22.85
2022-11-25T12:01:31.414Z,22.60
2022-11-25T12:02:57.207Z,19.92
2022-11-25T12:04:21.272Z,20.67
2022-11-25T12:05:31.400Z,22.75
2022-11-25T12:06:38.972Z,21.65
2022-11-25T12:08:38.123Z,26.73
2022-11-25T12:10:03.065Z,21.73
2022-11-25T12:11:20.260Z,24.05
2022-11-25T12:12:40.579Z,21.20
2022-11-25T12:14:00.684Z,24.38
2022-11-25T12:15:21.093Z,22.20
2022-11-25T12:16:52.217Z,20.70
2022-11-25T12:18:35.063Z,19.92
2022-11-25T12:19:49.297Z,19.33
2022-11-25T12:21:03.679Z,23.80
2022-11-25T12:22:33.233Z,22.77
2022-11-25T12:24:00.117Z,23.58
2022-11-25T12:25:19.878Z,23.92
2022-11-25T12:26:45.486Z,19.40
2022-11-25T12:28:12.224Z,25.25
2022-11-25T12:29:28.247Z,21.08
2022-11-25T12:31:20.240Z,26.65
2022-11-25T12:32:59.038Z,26.98
2022-11-25T12:34:12.970Z,25.75
2022-11-25T12:35:51.873Z,24.05
2022-11-25T12:37:15.186Z,22.70
2022-11-25T12:38:51.848Z,20.95
2022-11-25T12:40:22.486Z,26.02
2022-11-25T12:41:56.412Z,22.88
2022-11-25T12:43:35.100Z,23.27
2022-11-25T12:44:52.545Z,21.13
2022-11-25T12:46:08.860Z,20.25
2022-11-25T12:47:15.466Z,23.48
2022-11-25T12:48:27.953Z,20.42
2022-11-25T12:49:47.154Z,20.98
2022-11-25T12:51:10.202Z,20.92
2022-11-25T12:52:43.744Z,20.60
2022-11-25T12:54:02.192Z,20.73
2022-11-25T12:55:32.451Z,21.88
2022-11-25T12:56:52.106Z,20.58
2022-11-25T12:58:22.802Z,23.65
2022-11-25T12:59:47.410Z,20.70
2022-11-25T13:01:31.283Z,22.08
2022-11-25T13:03:15.072Z,20.13
2022-11-25T13:04:43.946Z,21.27
2022-11-25T13:06:02.109Z,22.00
2022-11-25T13:11:20.983Z,21.15
2022-11-25T13:12:43.092Z,21.15
2022-11-25T13:14:22.962Z,19.92
2022-11-25T13:15:40.439Z,17.52
2022-11-25T13:32:41.089Z,20.83
2022-11-25T13:37:46.394Z,16.17
2022-11-25T13:38:52.645Z,16.45
2022-11-25T13:40:29.362Z,14.40
2022-11-25T13:41:47.054Z,23.77
2022-11-25T13:42:55.732Z,24.08
2022-11-25T13:44:26.985Z,21.50
2022-11-25T13:45:56.694Z,25.25
2022-11-25T13:47:39.681Z,22.33
2022-11-25T13:48:57.247Z,12.48
2022-11-25T13:54:56.212Z,15.35
2022-11-25T13:56:46.313Z,14.02
2022-11-25T14:05:42.698Z,14.10
2022-11-25T14:07:50.347Z,17.02
2022-11-25T14:09:48.692Z,23.42
2022-11-25T14:12:46.989Z,14.07
2022-11-25T14:16:38.053Z,47.88
2022-11-25T14:20:50.675Z,14.40
2022-11-25T14:22:49.660Z,24.73
2022-11-25T14:28:54.955Z,27.30
2022-11-25T14:30:45.019Z,20.42
2022-11-25T14:35:05.412Z,16.73
2022-11-25T14:40:13.678Z,21.58
2022-11-25T14:53:08.329Z,17.20
2022-11-25T14:55:29.915Z,18.27
2022-11-25T14:57:00.910Z,17.88
2022-11-25T14:58:21.078Z,15.55
2022-11-25T15:14:22.514Z,20.95
2022-11-25T15:16:36.518Z,22.25
2022-11-25T15:18:09.604Z,56.78
2022-11-25T15:21:32.546Z,26.42
2022-11-25T15:22:55.048Z,20.80
2022-11-25T15:24:11.538Z,16.95
2022-11-25T15:25:21.290Z,13.75
2022-11-25T15:26:44.908Z,18.67
2022-11-25T15:27:55.728Z,14.65
2022-11-25T15:29:17.157Z,14.70
2022-11-25T15:30:26.670Z,17.35
2022-11-25T15:33:39.029Z,15.35
2022-11-25T15:35:03.295Z,15.45
2022-11-25T15:36:27.725Z,16.70
2022-11-25T15:37:37.796Z,14.40
2022-11-25T15:39:58.574Z,12.73
2022-11-25T15:41:11.303Z,23.25
2022-11-25T15:42:32.180Z,11.20
2022-11-25T15:44:47.517Z,16.45
2022-11-25T15:45:56.353Z,20.83
2022-11-25T15:47:26.676Z,23.42
2022-11-25T15:48:49.904Z,22.60
2022-11-25T15:50:13.536Z,21.60
2022-11-25T15:51:36.138Z,25.27
2022-11-25T15:53:09.941Z,15.35
2022-11-25T15:54:47.761Z,17.23
2022-11-25T15:56:12.646Z,18.77
2022-11-25T15:57:28.433Z,13.98
2022-11-25T15:58:51.249Z,16.23
2022-11-25T16:00:19.327Z,14.90
2022-11-25T16:01:31.443Z,15.85
2022-11-25T16:02:51.246Z,13.00
2022-11-25T16:43:47.455Z,23.80
2022-11-25T16:44:54.008Z,20.25
2022-11-25T16:46:07.829Z,17.70
2022-11-25T16:47:22.884Z,15.68
2022-11-25T16:48:34.199Z,14.48
2022-11-25T16:49:49.742Z,13.95
2022-11-25T17:47:49.287Z,14.23
2022-11-25T18:15:01.918Z,16.50
2022-11-25T18:38:44.708Z,14.38
2022-11-25T18:39:53.287Z,14.75
2022-11-25T18:47:54.708Z,13.50
2022-11-25T18:49:06.210Z,14.38
2022-11-25T18:50:35.572Z,12.55
2022-11-25T18:52:22.728Z,10.80
2022-11-25T18:53:37.259Z,13.68
2022-11-25T18:55:20.976Z,14.70
2022-11-25T19:29:26.697Z,16.88
2022-11-25T19:30:39.786Z,15.57
2022-11-25T19:31:46.438Z,17.33
2022-11-25T19:33:04.564Z,19.02
2022-11-25T19:34:26.472Z,15.43
2022-11-25T19:35:38.494Z,16.58
2022-11-25T19:36:41.260Z,15.40
2022-11-25T19:37:44.883Z,18.00
2022-11-25T19:38:47.606Z,14.35
2022-11-25T19:40:59.753Z,17.60
2022-11-25T19:42:01.785Z,14.13
2022-11-25T19:43:11.515Z,17.80
2022-11-25T19:44:15.446Z,15.48
2022-11-25T19:45:20.264Z,16.75
2022-11-25T19:46:29.983Z,16.45
2022-11-25T19:47:32.568Z,15.73
2022-11-25T19:48:39.529Z,17.00
2022-11-25T19:49:41.995Z,16.95
2022-11-25T19:50:49.088Z,18.98
2022-11-25T19:51:54.989Z,15.73
2022-11-25T19:52:59.014Z,18.23
2022-11-25T19:54:02.159Z,17.80
2022-11-25T19:55:24.345Z,17.73
2022-11-25T19:56:47.465Z,14.70
2022-11-25T19:57:50.970Z,16.95
2022-11-25T19:59:06.449Z,18.77
2022-11-25T20:00:17.732Z,15.55
2022-11-25T20:01:28.515Z,17.27
2022-11-25T20:02:37.734Z,19.80
2022-11-25T20:04:07.415Z,18.52
2022-11-25T20:05:25.821Z,17.85
2022-11-25T20:06:41.252Z,17.65
2022-11-25T20:07:52.525Z,17.67
2022-11-25T20:09:20.428Z,15.20
2022-11-25T20:10:48.994Z,16.45
2022-11-25T20:12:13.621Z,16.92
2022-11-25T20:14:07.990Z,18.38
2022-11-25T20:16:02.887Z,16.98
2022-11-25T20:17:38.064Z,16.25
2022-11-25T20:18:59.507Z,18.55
2022-11-25T20:21:06.168Z,16.23
2022-11-25T20:22:18.268Z,16.38
2022-11-25T20:23:40.049Z,17.00
2022-11-25T20:24:48.429Z,20.55
2022-11-25T20:25:51.037Z,16.50
2022-11-25T20:26:53.775Z,17.55
2022-11-25T20:27:58.636Z,17.95
2022-11-25T20:29:01.328Z,21.08
2022-11-25T20:30:15.588Z,17.52
2022-11-25T20:31:19.129Z,20.00
2022-11-25T20:32:35.115Z,17.02
2022-11-25T20:33:40.614Z,18.38
2022-11-25T20:34:45.663Z,17.40
2022-11-25T20:35:53.711Z,14.38
2022-11-25T20:36:57.609Z,14.15
2022-11-25T20:38:01.513Z,19.08
2022-11-25T20:39:05.213Z,18.83
2022-11-25T20:40:21.625Z,18.42
2022-11-25T20:41:27.974Z,16.05
2022-11-25T20:42:32.017Z,17.90
2022-11-25T20:43:41.978Z,15.55
2022-11-25T20:44:47.183Z,15.85
2022-11-25T20:46:06.440Z,18.65
2022-11-25T20:47:19.523Z,13.77
2022-11-25T20:48:23.202Z,18.40
2022-11-25T20:49:29.519Z,18.75
2022-11-25T20:50:38.126Z,15.05
2022-11-25T20:51:43.578Z,15.95
2022-11-25T20:52:47.985Z,17.42
2022-11-25T20:53:58.238Z,18.13
2022-11-25T20:55:05.819Z,14.98
2022-11-25T20:56:13.938Z,16.38
2022-11-25T20:57:16.070Z,15.43
2022-11-25T20:58:45.845Z,15.88
2022-11-25T20:59:48.104Z,15.48
2022-11-25T21:00:57.621Z,16.17
2022-11-25T21:02:04.142Z,14.20
2022-11-25T21:03:09.861Z,16.98
2022-11-25T21:04:13.112Z,15.77
2022-11-25T21:05:26.667Z,13.57
2022-11-25T21:06:41.114Z,19.67
2022-11-25T21:07:58.618Z,17.23
2022-11-25T21:09:06.044Z,13.85
2022-11-25T21:10:34.999Z,15.63
2022-11-25T21:11:38.075Z,18.13
2022-11-25T21:12:41.069Z,17.73
2022-11-25T21:13:49.776Z,16.23
2022-11-25T21:14:53.081Z,18.40
2022-11-25T21:15:57.908Z,15.63
2022-11-25T21:17:05.216Z,15.82
2022-11-25T21:18:08.845Z,14.23
2022-11-25T21:19:12.450Z,16.95
2022-11-25T21:20:19.502Z,19.60
2022-11-25T21:21:34.676Z,15.73
2022-11-25T21:22:41.346Z,16.25
2022-11-25T21:23:46.482Z,14.30
2022-11-25T21:24:49.128Z,14.68
2022-11-25T21:25:52.044Z,14.20
2022-11-25T21:27:09.929Z,13.50
2022-11-25T21:28:28.066Z,14.32
2022-11-25T21:29:31.659Z,14.43
2022-11-25T21:30:38.811Z,11.95
2022-11-25T21:31:42.723Z,11.90
2022-11-25T21:32:45.842Z,12.02
2022-11-25T21:33:53.352Z,14.90
2022-11-25T21:34:58.402Z,13.13
2022-11-25T21:36:02.097Z,15.02
2022-11-25T21:37:05.310Z,14.35
2022-11-25T21:38:21.130Z,11.93
2022-11-25T21:39:31.442Z,12.82
2022-11-25T21:40:38.574Z,22.13
2022-11-25T21:41:42.118Z,13.00
2022-11-25T21:42:45.778Z,18.15
2022-11-25T21:44:01.824Z,12.88
2022-11-25T21:45:05.350Z,13.95
2022-11-25T21:46:13.772Z,12.95
2022-11-25T21:47:27.280Z,11.95
2022-11-25T21:48:29.842Z,14.27
2022-11-25T21:49:32.270Z,11.55
2022-11-25T21:50:34.643Z,14.65
2022-11-25T21:51:38.377Z,15.50
2022-11-25T21:52:41.881Z,12.45
2022-11-25T21:53:45.042Z,14.18
2022-11-25T21:54:55.135Z,14.13
2022-11-25T21:56:01.660Z,13.90
2022-11-25T21:57:06.117Z,14.25
2022-11-25T21:58:29.159Z,15.77
2022-11-25T21:59:32.342Z,14.63
2022-11-25T22:00:36.384Z,13.07
2022-11-25T22:01:43.751Z,13.48
2022-11-25T22:02:46.108Z,14.55
2022-11-25T22:03:48.619Z,12.73
2022-11-25T22:04:52.549Z,15.27
2022-11-25T22:05:56.959Z,13.57
2022-11-25T22:07:00.850Z,13.93
2022-11-25T22:08:03.495Z,11.25
2022-11-25T22:09:14.008Z,12.25
2022-11-25T22:10:17.289Z,11.50
2022-11-25T22:11:29.661Z,14.02
2022-11-25T22:12:40.886Z,13.02
2022-11-25T22:13:47.720Z,14.43
2022-11-25T22:14:50.844Z,13.55
2022-11-25T22:16:01.330Z,13.18
2022-11-25T22:17:17.367Z,12.90
2022-11-25T22:18:36.674Z,11.55
2022-11-25T22:19:41.289Z,13.75
2022-11-25T22:20:46.411Z,10.95
2022-11-25T22:21:53.363Z,14.32
2022-11-25T22:22:58.119Z,12.95
2022-11-25T22:24:00.388Z,12.20
2022-11-25T22:25:03.643Z,12.50
2022-11-25T22:26:08.734Z,11.75
2022-11-25T22:27:38.564Z,14.20
2022-11-25T22:28:42.839Z,14.27
2022-11-25T22:29:47.423Z,14.15
2022-11-25T22:31:03.489Z,13.88
2022-11-25T22:32:13.513Z,13.90
2022-11-25T22:33:18.933Z,13.65
2022-11-25T22:34:26.921Z,13.98
2022-11-25T22:35:30.936Z,14.00
2022-11-25T22:36:54.166Z,12.60
2022-11-25T22:37:56.555Z,13.38
2022-11-25T22:39:15.314Z,15.25
2022-11-25T22:40:22.674Z,13.85
2022-11-25T22:41:26.848Z,18.00
2022-11-25T22:42:39.595Z,14.38
2022-11-25T22:43:48.714Z,15.13
2022-11-25T22:44:56.811Z,14.63
2022-11-25T22:45:59.050Z,13.95
2022-11-25T22:48:29.849Z,12.90